sensor_id;sensor_type;location;lat;lon;timestamp;temperature;humidity
66035;HTU21D;52805;51.074;5.842;2022-07-23T00:00:47;20.74;74.61
66035;HTU21D;52805;51.074;5.842;2022-07-23T00:03:13;20.70;74.80
66035;HTU21D;52805;51.074;5.842;2022-07-23T00:05:42;20.63;74.86
66035;HTU21D;52805;51.074;5.842;2022-07-23T00:08:07;20.60;74.93
66035;HTU21D;52805;51.074;5.842;2022-07-23T00:10:33;20.53;75.23
66035;HTU21D;52805;51.074;5.842;2022-07-23T00:12:59;20.50;75.36
66035;HTU21D;52805;51.074;5.842;2022-07-23T00:15:25;20.49;75.50
66035;HTU21D;52805;51.074;5.842;2022-07-23T00:17:51;20.45;75.64
66035;HTU21D;52805;51.074;5.842;2022-07-23T00:20:17;20.42;75.79
66035;HTU21D;52805;51.074;5.842;2022-07-23T00:22:52;20.34;75.99
66035;HTU21D;52805;51.074;5.842;2022-07-23T00:25:19;20.29;76.18
66035;HTU21D;52805;51.074;5.842;2022-07-23T00:27:45;20.25;76.23
66035;HTU21D;52805;51.074;5.842;2022-07-23T00:30:12;20.21;76.32
66035;HTU21D;52805;51.074;5.842;2022-07-23T00:32:55;20.18;76.44
66035;HTU21D;52805;51.074;5.842;2022-07-23T00:35:24;20.17;76.42
66035;HTU21D;52805;51.074;5.842;2022-07-23T00:37:50;20.17;76.26
66035;HTU21D;52805;51.074;5.842;2022-07-23T00:40:15;20.15;76.17
66035;HTU21D;52805;51.074;5.842;2022-07-23T00:42:41;20.11;76.08
66035;HTU21D;52805;51.074;5.842;2022-07-23T00:45:07;20.04;76.03
66035;HTU21D;52805;51.074;5.842;2022-07-23T00:47:33;19.96;76.15
66035;HTU21D;52805;51.074;5.842;2022-07-23T00:50:03;19.94;76.12
66035;HTU21D;52805;51.074;5.842;2022-07-23T00:52:29;19.90;76.23
66035;HTU21D;52805;51.074;5.842;2022-07-23T00:54:55;19.88;76.24
66035;HTU21D;52805;51.074;5.842;2022-07-23T00:57:21;19.85;76.23
66035;HTU21D;52805;51.074;5.842;2022-07-23T00:59:47;19.84;76.26
66035;HTU21D;52805;51.074;5.842;2022-07-23T01:02:12;19.84;76.10
66035;HTU21D;52805;51.074;5.842;2022-07-23T01:04:38;19.81;76.00
66035;HTU21D;52805;51.074;5.842;2022-07-23T01:07:04;19.75;76.14
66035;HTU21D;52805;51.074;5.842;2022-07-23T01:09:31;19.71;76.16
66035;HTU21D;52805;51.074;5.842;2022-07-23T01:11:58;19.69;76.28
66035;HTU21D;52805;51.074;5.842;2022-07-23T01:14:24;19.65;76.21
66035;HTU21D;52805;51.074;5.842;2022-07-23T01:16:50;19.61;76.34
66035;HTU21D;52805;51.074;5.842;2022-07-23T01:19:17;19.58;76.47
66035;HTU21D;52805;51.074;5.842;2022-07-23T01:21:49;19.56;76.57
66035;HTU21D;52805;51.074;5.842;2022-07-23T01:24:16;19.52;76.63
66035;HTU21D;52805;51.074;5.842;2022-07-23T01:27:02;19.50;76.74
66035;HTU21D;52805;51.074;5.842;2022-07-23T01:29:28;19.46;76.86
66035;HTU21D;52805;51.074;5.842;2022-07-23T01:31:55;19.45;76.88
66035;HTU21D;52805;51.074;5.842;2022-07-23T01:34:21;19.50;76.71
66035;HTU21D;52805;51.074;5.842;2022-07-23T01:36:47;19.44;76.82
66035;HTU21D;52805;51.074;5.842;2022-07-23T01:39:15;19.43;76.76
66035;HTU21D;52805;51.074;5.842;2022-07-23T01:41:41;19.41;76.82
66035;HTU21D;52805;51.074;5.842;2022-07-23T01:44:07;19.39;76.84
66035;HTU21D;52805;51.074;5.842;2022-07-23T01:46:33;19.36;76.95
66035;HTU21D;52805;51.074;5.842;2022-07-23T01:48:59;19.31;77.07
66035;HTU21D;52805;51.074;5.842;2022-07-23T01:51:54;19.28;76.99
66035;HTU21D;52805;51.074;5.842;2022-07-23T01:54:32;19.26;76.98
66035;HTU21D;52805;51.074;5.842;2022-07-23T01:56:59;19.25;77.03
66035;HTU21D;52805;51.074;5.842;2022-07-23T01:59:26;19.23;76.94
66035;HTU21D;52805;51.074;5.842;2022-07-23T02:01:52;19.24;76.90
66035;HTU21D;52805;51.074;5.842;2022-07-23T02:04:19;19.20;76.82
66035;HTU21D;52805;51.074;5.842;2022-07-23T02:06:46;19.17;76.84
66035;HTU21D;52805;51.074;5.842;2022-07-23T02:09:12;19.13;76.97
66035;HTU21D;52805;51.074;5.842;2022-07-23T02:11:38;19.10;77.18
66035;HTU21D;52805;51.074;5.842;2022-07-23T02:14:03;19.07;77.19
66035;HTU21D;52805;51.074;5.842;2022-07-23T02:16:29;19.03;77.15
66035;HTU21D;52805;51.074;5.842;2022-07-23T02:19:01;18.99;77.15
66035;HTU21D;52805;51.074;5.842;2022-07-23T02:21:26;18.97;77.17
66035;HTU21D;52805;51.074;5.842;2022-07-23T02:23:52;18.94;77.21
66035;HTU21D;52805;51.074;5.842;2022-07-23T02:26:18;18.94;77.21
66035;HTU21D;52805;51.074;5.842;2022-07-23T02:28:46;18.94;77.01
66035;HTU21D;52805;51.074;5.842;2022-07-23T02:31:12;18.91;76.98
66035;HTU21D;52805;51.074;5.842;2022-07-23T02:33:37;18.88;76.94
66035;HTU21D;52805;51.074;5.842;2022-07-23T02:36:03;18.88;76.96
66035;HTU21D;52805;51.074;5.842;2022-07-23T02:38:29;18.84;77.02
66035;HTU21D;52805;51.074;5.842;2022-07-23T02:40:56;18.77;77.20
66035;HTU21D;52805;51.074;5.842;2022-07-23T02:43:22;18.73;77.40
66035;HTU21D;52805;51.074;5.842;2022-07-23T02:45:47;18.72;77.46
66035;HTU21D;52805;51.074;5.842;2022-07-23T02:48:13;18.73;77.26
66035;HTU21D;52805;51.074;5.842;2022-07-23T02:50:42;18.70;77.12
66035;HTU21D;52805;51.074;5.842;2022-07-23T02:53:08;18.69;77.15
66035;HTU21D;52805;51.074;5.842;2022-07-23T02:55:34;18.68;76.95
66035;HTU21D;52805;51.074;5.842;2022-07-23T02:58:01;18.65;76.92
66035;HTU21D;52805;51.074;5.842;2022-07-23T03:00:27;18.58;76.96
66035;HTU21D;52805;51.074;5.842;2022-07-23T03:02:53;18.55;77.15
66035;HTU21D;52805;51.074;5.842;2022-07-23T03:05:19;18.51;77.31
66035;HTU21D;52805;51.074;5.842;2022-07-23T03:07:44;18.50;77.44
66035;HTU21D;52805;51.074;5.842;2022-07-23T03:10:10;18.49;77.45
66035;HTU21D;52805;51.074;5.842;2022-07-23T03:12:36;18.47;77.48
66035;HTU21D;52805;51.074;5.842;2022-07-23T03:15:02;18.44;77.47
66035;HTU21D;52805;51.074;5.842;2022-07-23T03:17:28;18.42;77.50
66035;HTU21D;52805;51.074;5.842;2022-07-23T03:19:53;18.41;77.47
66035;HTU21D;52805;51.074;5.842;2022-07-23T03:22:19;18.41;77.50
66035;HTU21D;52805;51.074;5.842;2022-07-23T03:24:46;18.41;77.42
66035;HTU21D;52805;51.074;5.842;2022-07-23T03:27:33;18.41;77.24
66035;HTU21D;52805;51.074;5.842;2022-07-23T03:30:00;18.36;77.32
66035;HTU21D;52805;51.074;5.842;2022-07-23T03:32:26;18.33;77.34
66035;HTU21D;52805;51.074;5.842;2022-07-23T03:34:52;18.35;77.26
66035;HTU21D;52805;51.074;5.842;2022-07-23T03:37:19;18.27;77.39
66035;HTU21D;52805;51.074;5.842;2022-07-23T03:39:46;18.22;77.46
66035;HTU21D;52805;51.074;5.842;2022-07-23T03:42:12;18.20;77.51
66035;HTU21D;52805;51.074;5.842;2022-07-23T03:44:38;18.17;77.57
66035;HTU21D;52805;51.074;5.842;2022-07-23T03:47:05;18.13;77.67
66035;HTU21D;52805;51.074;5.842;2022-07-23T03:49:32;18.11;77.79
66035;HTU21D;52805;51.074;5.842;2022-07-23T03:51:59;18.11;77.81
66035;HTU21D;52805;51.074;5.842;2022-07-23T03:54:24;18.11;77.73
66035;HTU21D;52805;51.074;5.842;2022-07-23T03:56:50;18.11;77.68
66035;HTU21D;52805;51.074;5.842;2022-07-23T03:59:16;18.10;77.59
66035;HTU21D;52805;51.074;5.842;2022-07-23T04:01:42;18.05;77.53
66035;HTU21D;52805;51.074;5.842;2022-07-23T04:04:07;18.04;77.51
66035;HTU21D;52805;51.074;5.842;2022-07-23T04:06:36;18.03;77.54
66035;HTU21D;52805;51.074;5.842;2022-07-23T04:09:02;18.04;77.53
66035;HTU21D;52805;51.074;5.842;2022-07-23T04:11:29;18.00;77.51
66035;HTU21D;52805;51.074;5.842;2022-07-23T04:13:54;17.99;77.52
66035;HTU21D;52805;51.074;5.842;2022-07-23T04:16:21;17.98;77.65
66035;HTU21D;52805;51.074;5.842;2022-07-23T04:18:46;17.96;77.74
66035;HTU21D;52805;51.074;5.842;2022-07-23T04:21:16;17.96;77.84
66035;HTU21D;52805;51.074;5.842;2022-07-23T04:23:41;17.93;78.03
66035;HTU21D;52805;51.074;5.842;2022-07-23T04:26:07;17.93;78.25
66035;HTU21D;52805;51.074;5.842;2022-07-23T04:28:33;17.92;78.44
66035;HTU21D;52805;51.074;5.842;2022-07-23T04:31:00;17.94;78.68
66035;HTU21D;52805;51.074;5.842;2022-07-23T04:33:26;17.95;78.93
66035;HTU21D;52805;51.074;5.842;2022-07-23T04:35:55;17.99;78.92
66035;HTU21D;52805;51.074;5.842;2022-07-23T04:38:22;18.03;78.72
66035;HTU21D;52805;51.074;5.842;2022-07-23T04:40:50;18.03;78.64
66035;HTU21D;52805;51.074;5.842;2022-07-23T04:43:16;18.04;78.70
66035;HTU21D;52805;51.074;5.842;2022-07-23T04:45:47;18.03;78.82
66035;HTU21D;52805;51.074;5.842;2022-07-23T04:48:13;18.05;78.78
66035;HTU21D;52805;51.074;5.842;2022-07-23T04:50:42;18.06;78.80
66035;HTU21D;52805;51.074;5.842;2022-07-23T04:53:15;18.07;78.82
66035;HTU21D;52805;51.074;5.842;2022-07-23T04:55:41;18.10;78.79
66035;HTU21D;52805;51.074;5.842;2022-07-23T04:58:07;18.11;78.96
66035;HTU21D;52805;51.074;5.842;2022-07-23T05:00:33;18.13;79.11
66035;HTU21D;52805;51.074;5.842;2022-07-23T05:02:58;18.13;79.14
66035;HTU21D;52805;51.074;5.842;2022-07-23T05:05:24;18.17;79.08
66035;HTU21D;52805;51.074;5.842;2022-07-23T05:07:55;18.19;79.11
66035;HTU21D;52805;51.074;5.842;2022-07-23T05:10:20;18.17;78.98
66035;HTU21D;52805;51.074;5.842;2022-07-23T05:12:46;18.18;78.93
66035;HTU21D;52805;51.074;5.842;2022-07-23T05:15:12;18.18;79.08
66035;HTU21D;52805;51.074;5.842;2022-07-23T05:17:38;18.13;79.03
66035;HTU21D;52805;51.074;5.842;2022-07-23T05:20:09;18.13;79.13
66035;HTU21D;52805;51.074;5.842;2022-07-23T05:22:35;18.13;79.21
66035;HTU21D;52805;51.074;5.842;2022-07-23T05:25:01;18.17;79.25
66035;HTU21D;52805;51.074;5.842;2022-07-23T05:27:27;18.20;79.32
66035;HTU21D;52805;51.074;5.842;2022-07-23T05:29:53;18.22;79.26
66035;HTU21D;52805;51.074;5.842;2022-07-23T05:32:18;18.28;79.13
66035;HTU21D;52805;51.074;5.842;2022-07-23T05:34:52;18.30;79.02
66035;HTU21D;52805;51.074;5.842;2022-07-23T05:37:18;18.29;78.89
66035;HTU21D;52805;51.074;5.842;2022-07-23T05:39:44;18.23;78.95
66035;HTU21D;52805;51.074;5.842;2022-07-23T05:42:09;18.19;79.17
66035;HTU21D;52805;51.074;5.842;2022-07-23T05:44:35;18.19;79.24
66035;HTU21D;52805;51.074;5.842;2022-07-23T05:47:01;18.19;79.19
66035;HTU21D;52805;51.074;5.842;2022-07-23T05:49:28;18.24;79.24
66035;HTU21D;52805;51.074;5.842;2022-07-23T05:52:09;18.29;79.27
66035;HTU21D;52805;51.074;5.842;2022-07-23T05:55:01;18.35;79.26
66035;HTU21D;52805;51.074;5.842;2022-07-23T05:57:27;18.38;79.20
66035;HTU21D;52805;51.074;5.842;2022-07-23T05:59:52;18.39;79.30
66035;HTU21D;52805;51.074;5.842;2022-07-23T06:02:18;18.44;79.30
66035;HTU21D;52805;51.074;5.842;2022-07-23T06:04:44;18.49;79.35
66035;HTU21D;52805;51.074;5.842;2022-07-23T06:07:24;18.54;79.30
66035;HTU21D;52805;51.074;5.842;2022-07-23T06:09:51;18.61;79.30
66035;HTU21D;52805;51.074;5.842;2022-07-23T06:12:17;18.66;79.27
66035;HTU21D;52805;51.074;5.842;2022-07-23T06:14:43;18.71;79.23
66035;HTU21D;52805;51.074;5.842;2022-07-23T06:17:08;18.77;79.02
66035;HTU21D;52805;51.074;5.842;2022-07-23T06:19:35;18.80;78.94
66035;HTU21D;52805;51.074;5.842;2022-07-23T06:22:01;18.82;79.03
66035;HTU21D;52805;51.074;5.842;2022-07-23T06:24:28;18.87;78.78
66035;HTU21D;52805;51.074;5.842;2022-07-23T06:26:53;18.92;78.73
66035;HTU21D;52805;51.074;5.842;2022-07-23T06:29:19;18.94;78.71
66035;HTU21D;52805;51.074;5.842;2022-07-23T06:31:45;19.01;78.52
66035;HTU21D;52805;51.074;5.842;2022-07-23T06:34:10;19.02;78.40
66035;HTU21D;52805;51.074;5.842;2022-07-23T06:36:36;19.06;78.29
66035;HTU21D;52805;51.074;5.842;2022-07-23T06:39:02;19.10;78.18
66035;HTU21D;52805;51.074;5.842;2022-07-23T06:41:28;19.14;78.02
66035;HTU21D;52805;51.074;5.842;2022-07-23T06:43:54;19.17;77.83
66035;HTU21D;52805;51.074;5.842;2022-07-23T06:46:21;19.18;77.88
66035;HTU21D;52805;51.074;5.842;2022-07-23T06:48:48;19.25;77.92
66035;HTU21D;52805;51.074;5.842;2022-07-23T06:51:14;19.27;77.83
66035;HTU21D;52805;51.074;5.842;2022-07-23T06:53:39;19.30;77.65
66035;HTU21D;52805;51.074;5.842;2022-07-23T06:56:08;19.32;77.55
66035;HTU21D;52805;51.074;5.842;2022-07-23T06:58:34;19.35;77.50
66035;HTU21D;52805;51.074;5.842;2022-07-23T07:00:59;19.39;77.31
66035;HTU21D;52805;51.074;5.842;2022-07-23T07:03:25;19.42;77.22
66035;HTU21D;52805;51.074;5.842;2022-07-23T07:05:51;19.43;77.15
66035;HTU21D;52805;51.074;5.842;2022-07-23T07:08:17;19.47;77.09
66035;HTU21D;52805;51.074;5.842;2022-07-23T07:10:43;19.56;76.83
66035;HTU21D;52805;51.074;5.842;2022-07-23T07:13:08;19.60;76.66
66035;HTU21D;52805;51.074;5.842;2022-07-23T07:15:34;19.68;76.55
66035;HTU21D;52805;51.074;5.842;2022-07-23T07:18:00;19.68;76.77
66035;HTU21D;52805;51.074;5.842;2022-07-23T07:20:25;19.73;76.89
66035;HTU21D;52805;51.074;5.842;2022-07-23T07:22:51;19.81;76.77
66035;HTU21D;52805;51.074;5.842;2022-07-23T07:25:17;19.87;76.51
66035;HTU21D;52805;51.074;5.842;2022-07-23T07:27:43;19.91;76.41
66035;HTU21D;52805;51.074;5.842;2022-07-23T07:30:12;19.99;76.24
66035;HTU21D;52805;51.074;5.842;2022-07-23T07:32:39;20.02;76.10
66035;HTU21D;52805;51.074;5.842;2022-07-23T07:35:05;20.09;75.93
66035;HTU21D;52805;51.074;5.842;2022-07-23T07:37:31;20.15;75.47
66035;HTU21D;52805;51.074;5.842;2022-07-23T07:39:56;20.17;74.97
66035;HTU21D;52805;51.074;5.842;2022-07-23T07:42:22;20.21;74.68
66035;HTU21D;52805;51.074;5.842;2022-07-23T07:44:48;20.27;74.04
66035;HTU21D;52805;51.074;5.842;2022-07-23T07:47:13;20.30;73.71
66035;HTU21D;52805;51.074;5.842;2022-07-23T07:49:41;20.32;73.51
66035;HTU21D;52805;51.074;5.842;2022-07-23T07:52:07;20.36;73.44
66035;HTU21D;52805;51.074;5.842;2022-07-23T07:54:33;20.44;73.29
66035;HTU21D;52805;51.074;5.842;2022-07-23T07:56:59;20.48;73.15
66035;HTU21D;52805;51.074;5.842;2022-07-23T07:59:24;20.56;72.78
66035;HTU21D;52805;51.074;5.842;2022-07-23T08:01:51;20.60;72.29
66035;HTU21D;52805;51.074;5.842;2022-07-23T08:04:17;20.61;72.03
66035;HTU21D;52805;51.074;5.842;2022-07-23T08:06:42;20.66;71.67
66035;HTU21D;52805;51.074;5.842;2022-07-23T08:09:08;20.73;71.22
66035;HTU21D;52805;51.074;5.842;2022-07-23T08:11:34;20.78;71.03
66035;HTU21D;52805;51.074;5.842;2022-07-23T08:13:59;20.84;70.90
66035;HTU21D;52805;51.074;5.842;2022-07-23T08:16:25;20.86;70.20
66035;HTU21D;52805;51.074;5.842;2022-07-23T08:18:51;20.88;69.07
66035;HTU21D;52805;51.074;5.842;2022-07-23T08:21:16;20.95;70.06
66035;HTU21D;52805;51.074;5.842;2022-07-23T08:23:42;21.02;69.78
66035;HTU21D;52805;51.074;5.842;2022-07-23T08:26:08;21.10;69.44
66035;HTU21D;52805;51.074;5.842;2022-07-23T08:28:33;21.14;68.10
66035;HTU21D;52805;51.074;5.842;2022-07-23T08:30:59;21.22;68.51
66035;HTU21D;52805;51.074;5.842;2022-07-23T08:33:26;21.25;68.29
66035;HTU21D;52805;51.074;5.842;2022-07-23T08:35:52;21.32;66.91
66035;HTU21D;52805;51.074;5.842;2022-07-23T08:38:20;21.35;68.01
66035;HTU21D;52805;51.074;5.842;2022-07-23T08:40:49;21.43;67.75
66035;HTU21D;52805;51.074;5.842;2022-07-23T08:43:18;21.52;67.01
66035;HTU21D;52805;51.074;5.842;2022-07-23T08:45:48;21.55;66.50
66035;HTU21D;52805;51.074;5.842;2022-07-23T08:48:20;21.63;66.28
66035;HTU21D;52805;51.074;5.842;2022-07-23T08:50:48;21.68;65.89
66035;HTU21D;52805;51.074;5.842;2022-07-23T08:53:17;21.74;65.83
66035;HTU21D;52805;51.074;5.842;2022-07-23T08:55:48;21.81;65.40
66035;HTU21D;52805;51.074;5.842;2022-07-23T08:58:15;21.88;64.82
66035;HTU21D;52805;51.074;5.842;2022-07-23T09:00:42;21.96;64.35
66035;HTU21D;52805;51.074;5.842;2022-07-23T09:03:19;21.99;64.02
66035;HTU21D;52805;51.074;5.842;2022-07-23T09:05:46;22.02;63.60
66035;HTU21D;52805;51.074;5.842;2022-07-23T09:08:17;22.02;63.95
66035;HTU21D;52805;51.074;5.842;2022-07-23T09:10:50;22.05;63.73
66035;HTU21D;52805;51.074;5.842;2022-07-23T09:13:49;22.07;63.22
66035;HTU21D;52805;51.074;5.842;2022-07-23T09:16:18;22.13;63.34
66035;HTU21D;52805;51.074;5.842;2022-07-23T09:18:58;22.20;63.06
66035;HTU21D;52805;51.074;5.842;2022-07-23T09:21:25;22.26;62.98
66035;HTU21D;52805;51.074;5.842;2022-07-23T09:23:59;22.36;62.76
66035;HTU21D;52805;51.074;5.842;2022-07-23T09:26:32;22.43;62.44
66035;HTU21D;52805;51.074;5.842;2022-07-23T09:29:02;22.50;62.19
66035;HTU21D;52805;51.074;5.842;2022-07-23T09:31:34;22.57;62.09
66035;HTU21D;52805;51.074;5.842;2022-07-23T09:34:30;22.69;61.48
66035;HTU21D;52805;51.074;5.842;2022-07-23T09:36:58;22.75;61.18
66035;HTU21D;52805;51.074;5.842;2022-07-23T09:39:33;22.82;60.48
66035;HTU21D;52805;51.074;5.842;2022-07-23T09:42:25;22.84;60.13
66035;HTU21D;52805;51.074;5.842;2022-07-23T09:44:53;22.84;58.28
66035;HTU21D;52805;51.074;5.842;2022-07-23T09:47:21;22.90;59.87
66035;HTU21D;52805;51.074;5.842;2022-07-23T09:50:10;22.95;59.50
66035;HTU21D;52805;51.074;5.842;2022-07-23T09:52:47;22.97;58.91
66035;HTU21D;52805;51.074;5.842;2022-07-23T09:55:15;23.06;58.79
66035;HTU21D;52805;51.074;5.842;2022-07-23T09:57:41;23.12;58.71
66035;HTU21D;52805;51.074;5.842;2022-07-23T10:00:09;23.24;58.67
66035;HTU21D;52805;51.074;5.842;2022-07-23T10:02:37;23.38;58.25
66035;HTU21D;52805;51.074;5.842;2022-07-23T10:05:24;23.49;57.31
66035;HTU21D;52805;51.074;5.842;2022-07-23T10:08:11;23.53;56.90
66035;HTU21D;52805;51.074;5.842;2022-07-23T10:10:56;23.57;56.77
66035;HTU21D;52805;51.074;5.842;2022-07-23T10:14:01;23.69;56.33
66035;HTU21D;52805;51.074;5.842;2022-07-23T10:16:52;23.75;55.78
66035;HTU21D;52805;51.074;5.842;2022-07-23T10:19:19;23.80;53.73
66035;HTU21D;52805;51.074;5.842;2022-07-23T10:22:09;23.82;54.62
66035;HTU21D;52805;51.074;5.842;2022-07-23T10:25:05;23.88;54.17
66035;HTU21D;52805;51.074;5.842;2022-07-23T10:27:53;23.95;53.73
66035;HTU21D;52805;51.074;5.842;2022-07-23T10:30:49;23.98;53.33
66035;HTU21D;52805;51.074;5.842;2022-07-23T10:33:29;24.05;53.82
66035;HTU21D;52805;51.074;5.842;2022-07-23T10:36:07;24.09;52.94
66035;HTU21D;52805;51.074;5.842;2022-07-23T10:38:52;24.08;52.79
66035;HTU21D;52805;51.074;5.842;2022-07-23T10:44:17;24.16;49.18
66035;HTU21D;52805;51.074;5.842;2022-07-23T10:49:33;24.25;52.43
66035;HTU21D;52805;51.074;5.842;2022-07-23T10:54:42;24.47;51.30
66035;HTU21D;52805;51.074;5.842;2022-07-23T10:57:10;24.58;51.13
66035;HTU21D;52805;51.074;5.842;2022-07-23T11:02:42;24.74;50.59
66035;HTU21D;52805;51.074;5.842;2022-07-23T11:05:09;24.85;49.96
66035;HTU21D;52805;51.074;5.842;2022-07-23T11:08:09;24.93;49.24
66035;HTU21D;52805;51.074;5.842;2022-07-23T11:13:29;25.07;49.18
66035;HTU21D;52805;51.074;5.842;2022-07-23T11:29:39;25.63;48.50
66035;HTU21D;52805;51.074;5.842;2022-07-23T11:32:14;25.73;48.20
66035;HTU21D;52805;51.074;5.842;2022-07-23T11:34:48;25.78;47.68
66035;HTU21D;52805;51.074;5.842;2022-07-23T11:39:57;25.84;47.12
66035;HTU21D;52805;51.074;5.842;2022-07-23T11:42:23;25.92;46.76
66035;HTU21D;52805;51.074;5.842;2022-07-23T11:44:50;26.04;46.42
66035;HTU21D;52805;51.074;5.842;2022-07-23T11:47:24;26.01;46.11
66035;HTU21D;52805;51.074;5.842;2022-07-23T11:49:58;26.09;46.52
66035;HTU21D;52805;51.074;5.842;2022-07-23T11:52:25;26.21;46.26
66035;HTU21D;52805;51.074;5.842;2022-07-23T11:57:28;26.40;46.12
66035;HTU21D;52805;51.074;5.842;2022-07-23T11:59:57;26.52;45.72
66035;HTU21D;52805;51.074;5.842;2022-07-23T12:02:24;26.61;45.40
66035;HTU21D;52805;51.074;5.842;2022-07-23T12:04:52;26.65;45.13
66035;HTU21D;52805;51.074;5.842;2022-07-23T12:07:48;26.68;44.90
66035;HTU21D;52805;51.074;5.842;2022-07-23T12:13:00;26.86;44.77
66035;HTU21D;52805;51.074;5.842;2022-07-23T12:18:00;27.19;44.49
66035;HTU21D;52805;51.074;5.842;2022-07-23T12:20:34;27.28;43.93
66035;HTU21D;52805;51.074;5.842;2022-07-23T12:23:04;27.32;43.50
66035;HTU21D;52805;51.074;5.842;2022-07-23T12:25:36;27.43;43.41
66035;HTU21D;52805;51.074;5.842;2022-07-23T12:30:38;27.45;42.72
66035;HTU21D;52805;51.074;5.842;2022-07-23T12:33:05;27.47;42.45
66035;HTU21D;52805;51.074;5.842;2022-07-23T12:35:39;27.57;43.06
66035;HTU21D;52805;51.074;5.842;2022-07-23T12:38:12;27.72;43.11
66035;HTU21D;52805;51.074;5.842;2022-07-23T12:46:11;28.10;41.89
66035;HTU21D;52805;51.074;5.842;2022-07-23T12:51:23;28.10;41.49
66035;HTU21D;52805;51.074;5.842;2022-07-23T12:53:51;28.06;41.37
66035;HTU21D;52805;51.074;5.842;2022-07-23T12:56:32;28.06;41.45
66035;HTU21D;52805;51.074;5.842;2022-07-23T12:59:08;28.16;41.17
66035;HTU21D;52805;51.074;5.842;2022-07-23T13:01:41;28.25;41.33
66035;HTU21D;52805;51.074;5.842;2022-07-23T13:04:13;28.31;41.39
66035;HTU21D;52805;51.074;5.842;2022-07-23T13:09:10;28.47;40.78
66035;HTU21D;52805;51.074;5.842;2022-07-23T13:11:36;28.54;40.42
66035;HTU21D;52805;51.074;5.842;2022-07-23T13:14:03;28.50;39.97
66035;HTU21D;52805;51.074;5.842;2022-07-23T13:16:30;28.45;40.07
66035;HTU21D;52805;51.074;5.842;2022-07-23T13:18:59;28.45;40.35
66035;HTU21D;52805;51.074;5.842;2022-07-23T13:21:27;28.60;40.56
66035;HTU21D;52805;51.074;5.842;2022-07-23T13:23:53;28.78;40.09
66035;HTU21D;52805;51.074;5.842;2022-07-23T13:26:19;28.87;39.79
66035;HTU21D;52805;51.074;5.842;2022-07-23T13:28:45;28.82;39.27
66035;HTU21D;52805;51.074;5.842;2022-07-23T13:31:11;28.79;39.53
66035;HTU21D;52805;51.074;5.842;2022-07-23T13:33:36;28.87;39.78
66035;HTU21D;52805;51.074;5.842;2022-07-23T13:36:03;28.99;39.28
66035;HTU21D;52805;51.074;5.842;2022-07-23T13:38:29;28.93;38.81
66035;HTU21D;52805;51.074;5.842;2022-07-23T13:40:54;28.88;37.09
66035;HTU21D;52805;51.074;5.842;2022-07-23T13:43:23;28.82;39.21
66035;HTU21D;52805;51.074;5.842;2022-07-23T13:45:50;28.84;39.10
66035;HTU21D;52805;51.074;5.842;2022-07-23T13:48:17;28.87;39.01
66035;HTU21D;52805;51.074;5.842;2022-07-23T13:50:45;28.91;39.79
66035;HTU21D;52805;51.074;5.842;2022-07-23T13:53:14;29.01;39.59
66035;HTU21D;52805;51.074;5.842;2022-07-23T13:55:41;29.14;39.10
66035;HTU21D;52805;51.074;5.842;2022-07-23T13:58:08;29.17;38.65
66035;HTU21D;52805;51.074;5.842;2022-07-23T14:00:37;29.14;38.61
66035;HTU21D;52805;51.074;5.842;2022-07-23T14:03:03;29.16;38.56
66035;HTU21D;52805;51.074;5.842;2022-07-23T14:05:30;29.17;38.53
66035;HTU21D;52805;51.074;5.842;2022-07-23T14:07:57;29.29;38.30
66035;HTU21D;52805;51.074;5.842;2022-07-23T14:10:23;29.39;38.01
66035;HTU21D;52805;51.074;5.842;2022-07-23T14:12:51;29.45;37.97
66035;HTU21D;52805;51.074;5.842;2022-07-23T14:15:19;29.51;37.69
66035;HTU21D;52805;51.074;5.842;2022-07-23T14:17:45;29.58;37.66
66035;HTU21D;52805;51.074;5.842;2022-07-23T14:20:13;29.64;37.53
66035;HTU21D;52805;51.074;5.842;2022-07-23T14:22:39;29.68;37.65
66035;HTU21D;52805;51.074;5.842;2022-07-23T14:25:07;29.81;37.63
66035;HTU21D;52805;51.074;5.842;2022-07-23T14:27:32;29.92;37.33
66035;HTU21D;52805;51.074;5.842;2022-07-23T14:29:58;29.98;37.17
66035;HTU21D;52805;51.074;5.842;2022-07-23T14:32:25;30.02;37.01
66035;HTU21D;52805;51.074;5.842;2022-07-23T14:34:51;30.07;37.02
66035;HTU21D;52805;51.074;5.842;2022-07-23T14:37:17;30.11;37.08
66035;HTU21D;52805;51.074;5.842;2022-07-23T14:39:44;30.13;36.75
66035;HTU21D;52805;51.074;5.842;2022-07-23T14:42:11;30.09;36.72
66035;HTU21D;52805;51.074;5.842;2022-07-23T14:44:37;30.03;36.74
66035;HTU21D;52805;51.074;5.842;2022-07-23T14:47:05;29.97;36.64
66035;HTU21D;52805;51.074;5.842;2022-07-23T14:49:32;29.96;36.61
66035;HTU21D;52805;51.074;5.842;2022-07-23T14:51:58;29.97;35.44
66035;HTU21D;52805;51.074;5.842;2022-07-23T14:54:24;29.97;36.83
66035;HTU21D;52805;51.074;5.842;2022-07-23T14:56:52;30.00;36.73
66035;HTU21D;52805;51.074;5.842;2022-07-23T14:59:18;29.94;36.53
66035;HTU21D;52805;51.074;5.842;2022-07-23T15:01:44;29.89;36.79
66035;HTU21D;52805;51.074;5.842;2022-07-23T15:04:10;29.93;36.92
66035;HTU21D;52805;51.074;5.842;2022-07-23T15:06:36;29.98;36.79
66035;HTU21D;52805;51.074;5.842;2022-07-23T15:09:02;29.91;36.71
66035;HTU21D;52805;51.074;5.842;2022-07-23T15:11:28;29.91;36.79
66035;HTU21D;52805;51.074;5.842;2022-07-23T15:13:58;29.87;36.72
66035;HTU21D;52805;51.074;5.842;2022-07-23T15:16:24;29.78;36.82
66035;HTU21D;52805;51.074;5.842;2022-07-23T15:18:49;29.72;37.05
66035;HTU21D;52805;51.074;5.842;2022-07-23T15:21:15;29.67;37.17
66035;HTU21D;52805;51.074;5.842;2022-07-23T15:23:41;29.63;37.23
66035;HTU21D;52805;51.074;5.842;2022-07-23T15:26:07;29.60;37.10
66035;HTU21D;52805;51.074;5.842;2022-07-23T15:28:34;29.53;37.31
66035;HTU21D;52805;51.074;5.842;2022-07-23T15:31:00;29.44;37.42
66035;HTU21D;52805;51.074;5.842;2022-07-23T15:33:26;29.34;37.00
66035;HTU21D;52805;51.074;5.842;2022-07-23T15:35:51;29.22;37.85
66035;HTU21D;52805;51.074;5.842;2022-07-23T15:38:20;29.05;38.12
66035;HTU21D;52805;51.074;5.842;2022-07-23T15:40:46;28.93;38.31
66035;HTU21D;52805;51.074;5.842;2022-07-23T15:43:12;28.89;38.44
66035;HTU21D;52805;51.074;5.842;2022-07-23T15:45:39;28.89;38.29
66035;HTU21D;52805;51.074;5.842;2022-07-23T15:48:05;28.89;38.66
66035;HTU21D;52805;51.074;5.842;2022-07-23T15:50:31;28.84;38.70
66035;HTU21D;52805;51.074;5.842;2022-07-23T15:52:57;28.72;38.75
66035;HTU21D;52805;51.074;5.842;2022-07-23T15:55:23;28.64;38.94
66035;HTU21D;52805;51.074;5.842;2022-07-23T15:57:50;28.58;38.97
66035;HTU21D;52805;51.074;5.842;2022-07-23T16:00:16;28.56;39.13
66035;HTU21D;52805;51.074;5.842;2022-07-23T16:02:41;28.53;39.22
66035;HTU21D;52805;51.074;5.842;2022-07-23T16:05:07;28.53;39.32
66035;HTU21D;52805;51.074;5.842;2022-07-23T16:07:34;28.63;39.33
66035;HTU21D;52805;51.074;5.842;2022-07-23T16:10:06;28.78;39.06
66035;HTU21D;52805;51.074;5.842;2022-07-23T16:12:32;28.91;38.72
66035;HTU21D;52805;51.074;5.842;2022-07-23T16:14:58;29.01;38.43